Time;durP1;ratioP1;P1;durP2;ratioP2;P2;SDS_P1;SDS_P2;PMS_P1;PMS_P2;Temp;Humidity;BMP_temperature;BMP_pressure;BME280_temperature;BME280_humidity;BME280_pressure;Samples;Min_cycle;Max_cycle;Signal;HPM_P1;HPM_P2
2021/09/13 00:02:06;;;;;;;;;7.50;6.75;;;;;19.00;60.59;101469.81;4986746;28;54343;-71
2021/09/13 00:04:31;;;;;;;;;6.75;6.75;;;;;18.96;60.88;101474.53;4985322;28;45447;-71
2021/09/13 00:06:56;;;;;;;;;8.50;7.00;;;;;18.91;60.89;101473.13;4991271;28;45466;-71
2021/09/13 00:09:22;;;;;;;;;7.00;7.00;;;;;18.92;61.06;101482.81;4982496;28;45269;-71
2021/09/13 00:11:48;;;;;;;;;6.00;6.00;;;;;18.88;61.12;101483.97;4993742;28;45325;-71
2021/09/13 00:14:13;;;;;;;;;5.25;5.00;;;;;18.88;61.03;101482.16;4991887;28;46197;-71
2021/09/13 00:16:38;;;;;;;;;7.75;7.75;;;;;18.88;61.08;101483.97;4992256;28;45458;-71
2021/09/13 00:19:03;;;;;;;;;6.00;5.25;;;;;18.89;61.24;101491.00;4991852;28;45546;-71
2021/09/13 00:21:29;;;;;;;;;7.75;7.00;;;;;18.84;61.33;101477.97;4984774;28;45488;-71
2021/09/13 00:23:54;;;;;;;;;7.75;6.25;;;;;18.83;61.53;101476.28;4980884;28;46117;-71
2021/09/13 00:26:19;;;;;;;;;7.25;6.00;;;;;18.77;61.14;101474.88;4981386;28;51610;-71
2021/09/13 00:28:45;;;;;;;;;8.00;7.00;;;;;18.76;61.77;101475.81;4989585;28;48269;-71
2021/09/13 00:31:10;;;;;;;;;9.00;8.25;;;;;18.72;61.93;101470.81;4985888;28;45544;-71
2021/09/13 00:33:36;;;;;;;;;7.75;7.75;;;;;18.55;61.85;101452.38;5005262;28;48463;-71
2021/09/13 00:36:02;;;;;;;;;6.25;6.25;;;;;18.65;61.90;101472.97;4996470;28;45483;-71
2021/09/13 00:38:27;;;;;;;;;7.00;6.25;;;;;18.64;62.38;101463.28;4992215;28;45469;-71
2021/09/13 00:40:52;;;;;;;;;8.75;6.75;;;;;18.61;62.89;101455.50;4992328;28;45544;-71
2021/09/13 00:43:18;;;;;;;;;7.25;7.00;;;;;18.61;62.67;101463.47;4991359;28;45601;-71
2021/09/13 00:45:43;;;;;;;;;10.75;6.50;;;;;18.60;63.21;101463.59;4986182;28;45495;-71
2021/09/13 00:48:08;;;;;;;;;9.00;8.00;;;;;18.60;62.47;101453.78;4994353;28;45315;-71
2021/09/13 00:50:34;;;;;;;;;9.00;8.25;;;;;18.50;62.28;101434.91;4991576;28;45518;-71
2021/09/13 00:53:00;;;;;;;;;11.25;8.00;;;;;18.64;62.51;101449.13;4982521;28;46735;-71
2021/09/13 00:55:26;;;;;;;;;9.75;8.75;;;;;18.60;62.20;101436.97;4981533;28;45762;-71
2021/09/13 00:57:53;;;;;;;;;7.25;7.25;;;;;18.64;62.20;101444.66;4982421;28;45890;-71
2021/09/13 01:00:19;;;;;;;;;7.00;7.00;;;;;18.63;62.48;101442.06;4994155;28;45445;-71
2021/09/13 01:02:44;;;;;;;;;8.75;6.50;;;;;18.61;62.64;101441.34;4985888;28;46351;-71
2021/09/13 01:05:10;;;;;;;;;7.00;6.50;;;;;18.61;62.55;101438.66;4984292;28;45419;-71
2021/09/13 01:07:36;;;;;;;;;8.25;8.00;;;;;18.61;62.60;101444.00;4984264;28;45552;-71
2021/09/13 01:10:03;;;;;;;;;8.25;8.25;;;;;18.58;62.59;101444.19;4983990;28;45478;-71
2021/09/13 01:12:28;;;;;;;;;7.50;7.50;;;;;18.56;62.78;101448.75;4987884;28;46496;-71
2021/09/13 01:14:53;;;;;;;;;10.00;10.00;;;;;18.56;63.21;101462.06;4991804;28;45312;-71
2021/09/13 01:17:19;;;;;;;;;8.50;8.50;;;;;18.52;63.24;101453.41;4988815;28;45388;-71
2021/09/13 01:19:45;;;;;;;;;9.00;7.25;;;;;18.47;62.80;101442.22;4981677;28;45498;-71
2021/09/13 01:22:12;;;;;;;;;8.50;8.50;;;;;18.47;63.17;101448.41;4981665;28;45813;-71
2021/09/13 01:24:37;;;;;;;;;7.25;7.25;;;;;18.45;63.21;101455.63;4993318;28;47397;-71
2021/09/13 01:27:13;;;;;;;;;10.50;8.75;;;;;18.46;63.79;101459.16;4980011;28;45296;-71
2021/09/13 01:29:39;;;;;;;;;9.25;7.75;;;;;18.48;64.20;101446.63;4990466;28;45458;-71
2021/09/13 01:32:06;;;;;;;;;10.00;7.25;;;;;18.46;64.36;101446.69;4990798;28;46576;-71
2021/09/13 01:34:32;;;;;;;;;8.75;8.00;;;;;18.48;64.77;101450.13;4990925;28;45308;-71
2021/09/13 01:36:57;;;;;;;;;8.25;8.25;;;;;18.47;64.68;101436.91;4991255;28;45370;-71
2021/09/13 01:39:23;;;;;;;;;6.25;6.25;;;;;18.45;64.71;101441.47;4992305;28;45480;-71
2021/09/13 01:41:48;;;;;;;;;8.00;8.00;;;;;18.44;64.80;101435.31;4981126;28;46628;-71
2021/09/13 01:44:15;;;;;;;;;7.25;7.00;;;;;18.41;64.71;101429.31;4988121;28;45665;-71
2021/09/13 01:46:41;;;;;;;;;10.00;9.00;;;;;18.42;64.57;101436.34;4985275;28;45415;-71
2021/09/13 01:49:08;;;;;;;;;10.75;7.00;;;;;18.44;64.69;101437.97;4990560;28;45430;-71
2021/09/13 01:51:34;;;;;;;;;8.00;6.00;;;;;18.43;64.89;101440.72;4993986;28;45613;-71
2021/09/13 01:54:00;;;;;;;;;6.50;6.50;;;;;18.41;65.06;101438.16;4989550;28;45335;-71
2021/09/13 01:56:28;;;;;;;;;7.00;6.50;;;;;18.43;64.92;101436.25;4990993;28;45507;-71
2021/09/13 01:58:53;;;;;;;;;8.75;8.75;;;;;18.41;64.96;101438.16;4985868;28;45498;-71
2021/09/13 02:01:19;;;;;;;;;8.75;8.00;;;;;18.39;65.01;101439.22;4982008;28;46687;-71
2021/09/13 02:03:45;;;;;;;;;10.25;9.00;;;;;18.30;64.75;101429.16;4992576;28;45778;-71
2021/09/13 02:06:10;;;;;;;;;12.25;9.00;;;;;18.35;65.04;101441.22;4993005;28;45371;-71
2021/09/13 02:08:36;;;;;;;;;9.00;8.00;;;;;18.33;64.49;101435.16;4989742;28;45638;-71
2021/09/13 02:11:01;;;;;;;;;10.00;7.50;;;;;18.31;64.19;101439.69;4990702;28;45475;-71
2021/09/13 02:13:26;;;;;;;;;6.75;6.75;;;;;18.29;64.76;101435.44;4990537;28;45379;-71
2021/09/13 02:15:52;;;;;;;;;5.50;5.50;;;;;18.19;64.57;101424.53;4991789;28;45471;-71
2021/09/13 02:18:17;;;;;;;;;8.25;7.50;;;;;18.20;64.16;101436.88;4977878;28;45813;-71
2021/09/13 02:20:43;;;;;;;;;9.25;9.25;;;;;18.20;64.83;101442.19;4980158;28;46467;-71
2021/09/13 02:23:08;;;;;;;;;7.00;6.75;;;;;18.14;64.71;101435.47;4988019;28;45289;-71
2021/09/13 02:25:33;;;;;;;;;6.25;5.50;;;;;18.12;64.60;101439.19;4988993;28;45373;-71
2021/09/13 02:27:58;;;;;;;;;12.00;8.00;;;;;18.00;65.04;101428.34;4989606;28;48978;-71
2021/09/13 02:30:24;;;;;;;;;8.25;7.50;;;;;18.02;65.21;101440.72;4994771;28;46168;-71
2021/09/13 02:32:49;;;;;;;;;8.25;7.75;;;;;17.97;65.12;101433.03;4990079;28;45362;-71
2021/09/13 02:35:15;;;;;;;;;9.25;7.00;;;;;17.94;65.23;101438.50;4989727;28;45523;-71
2021/09/13 02:37:40;;;;;;;;;10.00;8.50;;;;;17.84;65.58;101424.94;4989756;28;45680;-71
2021/09/13 02:40:07;;;;;;;;;8.50;6.75;;;;;17.84;65.93;101435.56;4981815;28;45573;-71
2021/09/13 02:42:33;;;;;;;;;13.00;9.00;;;;;17.80;65.67;101431.41;4980152;28;45401;-71
2021/09/13 02:44:58;;;;;;;;;10.75;8.25;;;;;17.78;66.09;101437.75;4977895;28;45443;-71
2021/09/13 02:47:23;;;;;;;;;9.00;8.75;;;;;17.73;66.73;101424.75;4989489;28;45818;-71
2021/09/13 02:49:49;;;;;;;;;8.00;6.75;;;;;17.72;66.25;101433.66;4989695;28;47513;-71
2021/09/13 02:52:14;;;;;;;;;9.25;8.75;;;;;17.72;66.44;101437.19;4989399;28;47329;-71
2021/09/13 02:54:39;;;;;;;;;9.00;8.00;;;;;17.69;66.21;101428.50;4992783;28;45393;-71
2021/09/13 02:57:05;;;;;;;;;8.00;8.00;;;;;17.76;66.00;101429.03;4978454;28;45300;-71
2021/09/13 02:59:30;;;;;;;;;9.00;6.50;;;;;17.73;66.52;101433.56;4978374;28;46212;-71
2021/09/13 03:01:55;;;;;;;;;8.50;7.50;;;;;17.81;66.31;101437.59;4987097;28;45399;-71
2021/09/13 03:04:21;;;;;;;;;7.50;7.50;;;;;17.82;66.33;101424.19;4982527;28;45630;-71
2021/09/13 03:06:46;;;;;;;;;7.00;7.00;;;;;17.84;65.98;101427.59;4991379;28;45399;-71
2021/09/13 03:09:11;;;;;;;;;10.00;8.25;;;;;17.70;65.84;101404.50;4990053;28;45479;-71
2021/09/13 03:11:37;;;;;;;;;6.00;6.00;;;;;17.82;66.40;101424.19;4982062;28;51877;-71
2021/09/13 03:14:03;;;;;;;;;7.25;7.00;;;;;17.75;66.34;101412.25;4986845;28;45903;-71
2021/09/13 03:16:28;;;;;;;;;9.00;6.25;;;;;17.74;66.17;101415.81;4983800;28;45543;-71
2021/09/13 03:18:54;;;;;;;;;8.00;7.75;;;;;17.68;66.31;101409.06;4988307;28;45255;-71
2021/09/13 03:21:19;;;;;;;;;8.25;7.25;;;;;17.67;66.16;101412.66;4993503;28;51565;-71
2021/09/13 03:23:44;;;;;;;;;6.75;5.50;;;;;17.61;66.15;101413.06;4984588;28;45726;-71
2021/09/13 03:26:10;;;;;;;;;9.75;7.00;;;;;17.57;66.76;101414.19;4991811;28;45570;-71
2021/09/13 03:28:35;;;;;;;;;8.00;6.50;;;;;17.57;66.69;101418.66;4994001;28;46176;-71
2021/09/13 03:31:02;;;;;;;;;8.25;6.00;;;;;17.51;66.47;101416.38;4992471;28;45562;-71
2021/09/13 03:33:28;;;;;;;;;8.50;7.75;;;;;17.48;67.20;101415.59;4994312;28;45531;-71
2021/09/13 03:35:53;;;;;;;;;8.75;7.00;;;;;17.49;67.25;101416.47;4993038;28;45427;-71
2021/09/13 03:38:19;;;;;;;;;9.75;7.00;;;;;17.42;67.09;101413.31;4992392;28;52881;-71
2021/09/13 03:40:44;;;;;;;;;9.75;7.50;;;;;17.37;67.24;101409.22;4989333;28;45352;-71
2021/09/13 03:43:09;;;;;;;;;9.75;7.00;;;;;17.30;67.80;101399.94;4983197;28;45459;-71
2021/09/13 03:45:35;;;;;;;;;9.00;7.25;;;;;17.28;67.53;101407.13;4996255;28;45351;-71
2021/09/13 03:48:00;;;;;;;;;9.25;7.50;;;;;17.23;67.98;101404.75;4992171;28;45522;-71
2021/09/13 03:50:25;;;;;;;;;9.25;8.00;;;;;17.19;67.60;101413.84;4982314;28;45316;-71
2021/09/13 03:52:51;;;;;;;;;8.00;8.00;;;;;17.14;68.16;101405.31;4988393;28;45447;-71
2021/09/13 03:55:16;;;;;;;;;7.75;6.25;;;;;17.12;67.88;101408.06;4991911;28;45509;-71
2021/09/13 03:57:41;;;;;;;;;8.00;7.50;;;;;17.09;67.91;101412.69;4994530;28;48279;-71
2021/09/13 04:00:07;;;;;;;;;6.25;6.25;;;;;17.05;68.05;101412.00;4982515;28;45495;-71
2021/09/13 04:02:32;;;;;;;;;10.50;8.00;;;;;17.04;68.28;101414.75;4984024;28;45396;-71
2021/09/13 04:04:58;;;;;;;;;8.25;7.00;;;;;16.98;67.93;101408.03;4988762;28;46499;-71
2021/09/13 04:07:33;;;;;;;;;10.00;8.00;;;;;16.95;68.12;101406.38;4992451;28;45568;-71
2021/09/13 04:12:36;;;;;;;;;10.75;8.75;;;;;16.90;68.53;101407.59;4981360;28;45570;-71
2021/09/13 04:15:01;;;;;;;;;8.00;8.00;;;;;16.87;68.62;101402.50;4986398;28;45458;-71
2021/09/13 04:17:26;;;;;;;;;8.75;8.00;;;;;16.87;68.22;101394.53;4988927;28;53427;-71
2021/09/13 04:19:52;;;;;;;;;9.00;8.00;;;;;16.84;68.52;101400.00;4983566;28;45471;-71
2021/09/13 04:22:18;;;;;;;;;7.75;7.75;;;;;16.84;68.85;101405.31;4983393;28;45499;-71
2021/09/13 04:24:43;;;;;;;;;8.75;7.75;;;;;16.82;68.79;101401.91;4994529;28;45376;-71
2021/09/13 04:27:08;;;;;;;;;9.25;8.25;;;;;16.81;68.38;101406.38;4992418;28;47011;-71
2021/09/13 04:29:34;;;;;;;;;8.00;8.00;;;;;16.80;68.76;101406.44;4981214;28;45588;-71
2021/09/13 04:31:59;;;;;;;;;8.00;7.00;;;;;16.73;68.88;101397.13;4987886;28;45827;-71
2021/09/13 04:34:24;;;;;;;;;10.00;9.25;;;;;16.74;69.04;101405.00;4991339;28;45533;-71
2021/09/13 04:36:50;;;;;;;;;8.00;8.00;;;;;16.73;69.24;101399.78;4993584;28;47536;-71
2021/09/13 04:39:15;;;;;;;;;12.00;8.25;;;;;16.71;68.81;101389.25;4993998;28;45623;-71
2021/09/13 04:41:40;;;;;;;;;9.00;8.00;;;;;16.64;68.86;101385.19;4981350;28;45383;-71
2021/09/13 04:44:06;;;;;;;;;8.75;8.25;;;;;16.64;69.26;101386.06;4998843;28;45643;-71
2021/09/13 04:46:31;;;;;;;;;10.50;7.00;;;;;16.64;68.84;101386.06;4991525;28;46098;-71
2021/09/13 04:48:56;;;;;;;;;9.00;7.25;;;;;16.62;69.10;101387.94;4991644;28;45475;-71
2021/09/13 04:51:22;;;;;;;;;9.50;9.25;;;;;16.53;69.22;101382.31;4995363;28;45340;-71
2021/09/13 04:53:47;;;;;;;;;8.75;7.75;;;;;16.59;69.06;101392.56;4991996;28;45412;-71
2021/09/13 04:56:12;;;;;;;;;7.00;7.00;;;;;16.59;69.24;101400.53;4984005;28;55182;-71
2021/09/13 04:58:38;;;;;;;;;8.00;8.00;;;;;16.52;68.98;101399.19;4987332;28;45632;-71
2021/09/13 05:01:07;;;;;;;;;9.75;9.00;;;;;16.53;69.33;101390.28;4993898;28;45522;-71
2021/09/13 05:03:32;;;;;;;;;8.75;8.75;;;;;16.53;69.59;101396.44;4981029;28;45370;-71
2021/09/13 05:05:58;;;;;;;;;9.00;9.00;;;;;16.51;69.40;101400.13;4980628;28;53820;-71
2021/09/13 05:08:23;;;;;;;;;11.00;10.00;;;;;16.38;69.63;101379.59;4991156;28;45753;-71
2021/09/13 05:10:48;;;;;;;;;9.50;8.00;;;;;16.42;69.64;101389.09;4986610;28;45505;-71
2021/09/13 05:13:13;;;;;;;;;10.25;9.25;;;;;16.45;69.42;101396.03;4982908;28;45681;-71
2021/09/13 05:15:39;;;;;;;;;11.25;10.50;;;;;16.41;69.74;101378.56;4979914;28;51629;-71
2021/09/13 05:18:04;;;;;;;;;13.25;12.00;;;;;16.41;69.98;101382.06;4989260;28;45399;-71
2021/09/13 05:20:29;;;;;;;;;11.50;9.00;;;;;16.42;69.67;101386.44;4991495;28;45372;-71
2021/09/13 05:22:55;;;;;;;;;9.00;9.00;;;;;16.44;69.86;101389.88;4988208;28;45483;-71
2021/09/13 05:25:21;;;;;;;;;10.25;8.75;;;;;16.47;70.08;101380.88;4982580;28;46910;-71
2021/09/13 05:27:47;;;;;;;;;9.00;8.50;;;;;16.48;70.03;101387.03;4991067;28;45392;-71
2021/09/13 05:30:12;;;;;;;;;8.50;8.50;;;;;16.50;69.80;101388.66;4990080;28;45739;-71
2021/09/13 05:32:37;;;;;;;;;10.00;10.00;;;;;16.50;69.76;101379.84;4995232;28;45321;-71
2021/09/13 05:35:03;;;;;;;;;12.00;10.00;;;;;16.54;69.75;101392.81;4988425;28;46158;-71
2021/09/13 05:37:29;;;;;;;;;12.50;9.75;;;;;16.52;70.08;101378.81;4991149;28;45647;-71
2021/09/13 05:39:54;;;;;;;;;10.25;10.00;;;;;16.58;70.14;101388.22;4991478;28;50019;-71
2021/09/13 05:42:20;;;;;;;;;8.25;8.25;;;;;16.57;70.03;101383.84;4979371;28;47272;-71
2021/09/13 05:44:45;;;;;;;;;10.00;9.00;;;;;16.57;69.96;101389.16;4983919;28;46258;-71
2021/09/13 05:47:10;;;;;;;;;12.00;10.75;;;;;16.61;69.76;101385.41;4982554;28;45725;-71
2021/09/13 05:49:36;;;;;;;;;11.00;10.00;;;;;16.65;70.08;101382.47;4986618;28;46806;-71
2021/09/13 05:52:01;;;;;;;;;11.75;11.00;;;;;16.67;69.66;101380.56;4984307;28;45608;-71
2021/09/13 05:54:27;;;;;;;;;10.50;10.00;;;;;16.70;69.69;101384.84;4985610;28;47190;-72
2021/09/13 05:56:53;;;;;;;;;10.25;9.25;;;;;16.72;69.84;101383.00;4994524;28;45550;-71
2021/09/13 05:59:20;;;;;;;;;11.75;11.75;;;;;16.72;70.09;101380.34;4983420;28;46283;-71
2021/09/13 06:01:46;;;;;;;;;11.25;10.50;;;;;16.80;69.91;101388.69;4984304;28;45383;-72
2021/09/13 06:04:12;;;;;;;;;12.50;11.00;;;;;16.82;69.84;101376.22;4989554;28;46131;-71
2021/09/13 06:06:37;;;;;;;;;16.75;12.00;;;;;16.85;69.72;101386.63;4984810;28;45497;-71
2021/09/13 06:09:03;;;;;;;;;13.25;11.25;;;;;16.92;69.77;101389.81;4979538;28;45381;-71
2021/09/13 06:11:28;;;;;;;;;12.50;12.50;;;;;16.95;69.39;101377.19;4985804;28;45476;-71
2021/09/13 06:13:54;;;;;;;;;6.00;4.50;;;;;16.99;69.52;101379.66;4989132;28;47072;-71
2021/09/13 06:16:19;;;;;;;;;11.00;11.00;;;;;17.00;69.28;101376.91;4981066;28;45747;-71
2021/09/13 06:18:45;;;;;;;;;13.50;10.75;;;;;17.08;69.33;101385.28;4989084;28;45602;-71
2021/09/13 06:21:10;;;;;;;;;9.00;9.00;;;;;17.10;69.40;101382.53;4987485;28;45367;-71
2021/09/13 06:23:36;;;;;;;;;11.00;10.00;;;;;17.20;68.89;101389.00;4990624;28;47231;-71
2021/09/13 06:26:01;;;;;;;;;14.50;11.00;;;;;17.28;69.19;101391.19;4990340;28;46204;-71
2021/09/13 06:28:26;;;;;;;;;13.75;12.75;;;;;17.31;69.06;101394.50;4989688;28;45392;-71
2021/09/13 06:30:52;;;;;;;;;13.75;11.50;;;;;17.37;68.20;101395.94;5008674;28;45241;-71
2021/09/13 06:33:17;;;;;;;;;11.25;11.25;;;;;17.36;68.85;101391.56;4993531;28;46361;-71
2021/09/13 06:35:43;;;;;;;;;14.75;11.25;;;;;17.41;68.43;101398.31;4986013;28;45534;-71
2021/09/13 06:38:08;;;;;;;;;15.00;12.00;;;;;17.43;68.02;101396.41;4992279;28;45589;-71
2021/09/13 06:40:33;;;;;;;;;14.00;12.00;;;;;17.51;68.88;101401.28;4991283;28;45528;-71
2021/09/13 06:42:59;;;;;;;;;10.50;10.50;;;;;17.58;68.59;101397.28;4992288;28;47215;-71
2021/09/13 06:45:24;;;;;;;;;13.00;12.50;;;;;17.67;68.38;101391.41;5009595;28;45863;-71
2021/09/13 06:47:50;;;;;;;;;18.25;16.00;;;;;17.77;68.38;101399.69;4992874;28;45367;-71
2021/09/13 06:50:26;;;;;;;;;11.00;10.50;;;;;17.89;67.82;101398.06;4989951;28;45782;-71
2021/09/13 06:52:53;;;;;;;;;11.75;11.25;;;;;18.00;67.43;101406.22;4989704;28;46822;-71
2021/09/13 06:55:18;;;;;;;;;15.25;13.00;;;;;18.06;67.30;101404.97;4992258;28;45644;-71
2021/09/13 06:57:44;;;;;;;;;17.00;12.75;;;;;18.18;67.18;101410.38;4982037;28;45532;-71
2021/09/13 07:00:12;;;;;;;;;16.50;12.50;;;;;18.29;66.92;101406.16;4995632;28;45368;-71
2021/09/13 07:02:40;;;;;;;;;14.75;12.50;;;;;18.41;67.06;101411.53;4996271;28;45513;-71
2021/09/13 07:05:07;;;;;;;;;14.50;11.50;;;;;18.61;66.86;101414.72;4992401;28;45355;-71
2021/09/13 07:07:32;;;;;;;;;12.75;12.25;;;;;18.73;66.12;101409.44;4997081;28;45431;-71
2021/09/13 07:09:58;;;;;;;;;14.50;13.25;;;;;18.95;65.73;101408.88;4993714;28;45419;-71
2021/09/13 07:12:24;;;;;;;;;14.75;12.00;;;;;19.08;65.85;101400.06;4996791;28;45412;-71
2021/09/13 07:14:49;;;;;;;;;14.00;12.00;;;;;19.19;65.47;101408.16;4983190;28;45643;-71
2021/09/13 07:17:14;;;;;;;;;11.75;10.75;;;;;19.32;64.61;101400.19;4989418;28;45874;-72
2021/09/13 07:19:40;;;;;;;;;11.75;10.25;;;;;19.43;64.35;101400.31;4988234;28;45765;-71
2021/09/13 07:22:05;;;;;;;;;14.50;11.00;;;;;19.54;64.35;101395.94;4987713;28;46049;-71
2021/09/13 07:24:31;;;;;;;;;13.50;12.25;;;;;19.74;63.92;101393.72;4994987;28;54112;-71
2021/09/13 07:26:56;;;;;;;;;13.50;12.50;;;;;19.89;63.86;101397.06;4990010;28;45562;-71
2021/09/13 07:29:21;;;;;;;;;15.75;12.50;;;;;19.98;63.49;101394.59;4994105;28;45313;-71
2021/09/13 07:31:47;;;;;;;;;11.00;10.75;;;;;20.22;63.57;101407.16;4990800;28;45550;-71
2021/09/13 07:34:12;;;;;;;;;12.00;11.25;;;;;20.34;62.69;101390.22;4991638;28;45876;-71
2021/09/13 07:36:37;;;;;;;;;9.25;8.50;;;;;20.45;62.07;101390.28;4996755;28;45387;-71
2021/09/13 07:39:04;;;;;;;;;11.00;10.50;;;;;20.55;62.43;101390.47;4988846;28;45468;-70
2021/09/13 07:41:30;;;;;;;;;13.75;11.25;;;;;20.74;62.26;101388.16;4995583;28;46470;-71
2021/09/13 07:43:55;;;;;;;;;11.25;9.50;;;;;20.96;61.55;101395.38;4988360;28;45790;-71
2021/09/13 07:46:20;;;;;;;;;13.75;11.50;;;;;21.19;61.16;101390.94;4989407;28;45375;-72
2021/09/13 07:48:46;;;;;;;;;17.00;13.75;;;;;21.33;60.34;101393.44;4994303;28;46464;-71
2021/09/13 07:51:11;;;;;;;;;17.00;11.50;;;;;21.46;60.10;101392.50;4988268;28;55623;-71
2021/09/13 07:53:36;;;;;;;;;14.00;12.25;;;;;21.57;60.11;101390.66;4984666;28;45359;-71
2021/09/13 07:56:02;;;;;;;;;11.75;10.00;;;;;21.58;59.35;101368.28;4989293;28;45664;-71
2021/09/13 07:58:27;;;;;;;;;11.25;9.75;;;;;21.88;59.72;101382.88;4992404;28;45317;-71
2021/09/13 08:00:52;;;;;;;;;13.75;13.25;;;;;22.33;59.53;101377.44;4993051;28;62560;-70
2021/09/13 08:03:17;;;;;;;;;13.25;10.00;;;;;23.06;57.71;101384.72;4990890;28;45218;-71
2021/09/13 08:05:43;;;;;;;;;8.50;8.50;;;;;23.25;57.06;101375.94;4991882;28;46795;-70
2021/09/13 08:08:08;;;;;;;;;15.50;10.00;;;;;23.50;56.19;101376.50;4990968;28;45270;-70
2021/09/13 08:10:33;;;;;;;;;11.00;10.00;;;;;23.58;55.28;101376.66;4991506;28;47013;-70
2021/09/13 08:12:59;;;;;;;;;11.75;9.50;;;;;23.65;55.62;101372.53;4990435;28;45499;-73
2021/09/13 08:15:24;;;;;;;;;8.75;7.25;;;;;23.94;55.36;101381.50;4989187;28;45685;-71
2021/09/13 08:17:50;;;;;;;;;8.75;8.75;;;;;24.20;54.44;101381.84;4990306;28;45606;-71
2021/09/13 08:20:16;;;;;;;;;10.00;8.00;;;;;24.33;54.27;101372.69;4989886;28;46473;-71
2021/09/13 08:22:41;;;;;;;;;8.75;7.00;;;;;24.45;54.13;101366.22;4987832;28;46956;-71
2021/09/13 08:25:07;;;;;;;;;8.00;7.00;;;;;24.51;52.96;101364.81;4989958;28;45467;-71
2021/09/13 08:27:32;;;;;;;;;9.75;7.75;;;;;24.64;52.73;101360.84;4979466;28;45480;-71
2021/09/13 08:29:58;;;;;;;;;7.00;5.25;;;;;24.88;52.84;101373.00;4980674;28;47247;-71
2021/09/13 08:32:23;;;;;;;;;9.00;6.50;;;;;25.07;52.58;101364.94;4983881;28;45514;-71
2021/09/13 08:34:51;;;;;;;;;6.25;6.00;;;;;25.24;51.82;101372.25;4989834;28;45467;-71
2021/09/13 08:37:16;;;;;;;;;6.50;6.50;;;;;25.43;51.14;101373.19;4991929;28;45495;-69
2021/09/13 08:39:41;;;;;;;;;7.50;6.00;;;;;25.48;51.05;101369.06;4985689;28;45591;-69
2021/09/13 08:42:07;;;;;;;;;7.50;6.00;;;;;25.56;51.12;101362.09;4990090;28;45360;-69
2021/09/13 08:44:33;;;;;;;;;9.00;7.00;;;;;25.70;50.66;101365.16;4989756;28;45637;-69
2021/09/13 08:47:28;;;;;;;;;5.00;4.75;;;;;25.84;50.71;101352.19;4989896;28;45625;-69
2021/09/13 08:49:49;;;;;;;;;9.00;7.00;;;;;25.93;50.62;101348.59;4989687;28;45600;-69
2021/09/13 08:52:14;;;;;;;;;7.25;7.25;;;;;26.02;50.32;101353.09;4989714;28;45525;-70
2021/09/13 08:54:40;;;;;;;;;6.50;6.25;;;;;26.12;49.79;101359.28;4991100;28;45521;-69
2021/09/13 08:57:07;;;;;;;;;6.00;5.75;;;;;26.35;50.05;101358.81;4981842;28;45500;-69
2021/09/13 08:59:34;;;;;;;;;7.00;7.00;;;;;26.69;49.45;101361.72;4982768;28;46882;-69
2021/09/13 09:02:01;;;;;;;;;7.75;5.25;;;;;27.62;48.99;101368.25;4990760;28;45482;-70
2021/09/13 09:04:28;;;;;;;;;6.00;6.00;;;;;29.40;47.39;101367.84;4991280;28;45408;-69
2021/09/13 09:06:53;;;;;;;;;10.00;7.75;;;;;30.82;45.00;101371.16;4988020;28;45497;-69
2021/09/13 09:09:20;;;;;;;;;8.75;5.75;;;;;32.05;42.85;101380.69;4984442;28;45567;-69
2021/09/13 09:11:49;;;;;;;;;7.00;7.00;;;;;33.68;41.64;101381.53;4981474;28;45428;-69
2021/09/13 09:14:25;;;;;;;;;8.25;5.00;;;;;35.25;39.17;101388.56;4984069;28;45681;-69
2021/09/13 09:16:59;;;;;;;;;6.00;6.00;;;;;36.47;37.89;101390.44;4989765;28;45782;-69
2021/09/13 09:19:24;;;;;;;;;6.25;6.25;;;;;36.72;35.21;101381.41;4988451;28;46235;-69
2021/09/13 09:21:50;;;;;;;;;3.00;3.00;;;;;36.85;36.58;101389.50;4982877;28;45552;-69
2021/09/13 09:24:16;;;;;;;;;5.50;5.50;;;;;37.59;34.00;101385.88;4995031;28;48103;-69
2021/09/13 09:27:04;;;;;;;;;8.00;6.00;;;;;38.09;34.74;101388.41;4990602;28;45332;-69
2021/09/13 09:29:33;;;;;;;;;6.75;6.25;;;;;38.62;32.25;101384.06;4984839;28;46869;-70
2021/09/13 09:31:59;;;;;;;;;9.50;6.50;;;;;38.88;31.98;101377.31;4989824;28;45415;-69
2021/09/13 09:34:26;;;;;;;;;6.00;4.75;;;;;38.90;31.06;101375.16;4991002;28;45440;-69
2021/09/13 09:36:58;;;;;;;;;4.25;3.00;;;;;38.30;31.49;101367.88;4992223;28;45365;-70
2021/09/13 09:39:28;;;;;;;;;8.00;5.75;;;;;37.98;31.62;101360.91;4991187;28;46273;-69
2021/09/13 09:41:55;;;;;;;;;5.75;3.75;;;;;37.80;32.36;101372.75;4988236;28;45606;-70
2021/09/13 09:44:21;;;;;;;;;4.25;4.25;;;;;37.76;32.12;101371.53;4992950;28;45506;-70
2021/09/13 09:46:47;;;;;;;;;5.25;5.25;;;;;37.65;31.72;101373.16;4987123;28;45425;-70
2021/09/13 09:49:17;;;;;;;;;6.00;5.25;;;;;37.13;31.87;101377.28;4989259;28;46201;-69
2021/09/13 09:51:45;;;;;;;;;4.50;4.50;;;;;36.39;31.68;101371.53;4992566;28;45667;-70
2021/09/13 09:54:16;;;;;;;;;6.00;5.00;;;;;35.93;32.53;101372.63;4993260;28;45450;-69
2021/09/13 09:56:43;;;;;;;;;7.00;5.00;;;;;35.64;33.20;101371.25;4995104;28;45337;-70
2021/09/13 09:59:10;;;;;;;;;5.50;5.50;;;;;35.46;32.93;101362.91;4990149;28;46589;-70
2021/09/13 10:01:40;;;;;;;;;6.50;4.00;;;;;35.49;33.42;101374.22;4990832;28;45769;-70
2021/09/13 10:04:11;;;;;;;;;4.50;4.50;;;;;35.32;32.92;101359.31;4990612;28;45447;-69
2021/09/13 10:06:37;;;;;;;;;3.75;3.75;;;;;34.96;33.65;101352.44;4991069;28;45928;-70
2021/09/13 10:09:03;;;;;;;;;4.00;4.00;;;;;34.88;32.95;101336.28;4991645;28;45605;-70
2021/09/13 10:11:29;;;;;;;;;4.00;3.00;;;;;34.97;33.82;101343.19;4982198;28;45376;-70
2021/09/13 10:13:54;;;;;;;;;3.75;2.00;;;;;34.83;33.24;101332.50;4986656;28;45468;-70
2021/09/13 10:16:20;;;;;;;;;2.50;2.50;;;;;34.92;33.56;101323.84;4989779;28;45449;-70
2021/09/13 10:18:46;;;;;;;;;5.00;5.00;;;;;35.32;32.94;101318.34;4991338;28;45694;-70
2021/09/13 10:21:12;;;;;;;;;3.50;3.50;;;;;35.59;33.00;101312.78;4981456;28;45935;-70
2021/09/13 10:23:38;;;;;;;;;2.75;2.75;;;;;35.79;32.50;101308.91;4990036;28;45513;-69
2021/09/13 10:26:06;;;;;;;;;4.25;4.25;;;;;36.03;32.29;101309.25;4982868;28;45866;-70
2021/09/13 10:28:32;;;;;;;;;3.25;3.25;;;;;36.14;32.04;101315.91;4982915;28;45714;-69
2021/09/13 10:30:57;;;;;;;;;4.75;3.50;;;;;36.18;31.47;101307.03;4990065;28;45384;-70
2021/09/13 10:33:22;;;;;;;;;4.75;4.25;;;;;36.17;31.62;101305.34;4994288;28;45541;-70
2021/09/13 10:35:55;;;;;;;;;3.25;3.25;;;;;36.02;31.31;101310.28;4990168;28;45382;-70
2021/09/13 10:38:46;;;;;;;;;3.00;2.50;;;;;35.64;32.00;101304.78;4989874;28;46097;-69
2021/09/13 10:41:32;;;;;;;;;4.50;3.50;;;;;35.34;32.56;101298.97;4989700;28;45617;-70
2021/09/13 10:44:06;;;;;;;;;3.75;3.00;;;;;35.03;32.88;101303.25;4989946;28;45581;-69
2021/09/13 10:47:06;;;;;;;;;4.00;4.00;;;;;34.63;32.21;101297.00;4990255;28;45479;-70
2021/09/13 10:49:32;;;;;;;;;2.50;2.50;;;;;34.13;33.08;101291.91;4986637;28;45769;-70
2021/09/13 10:52:31;;;;;;;;;4.75;3.75;;;;;33.58;33.62;101287.53;4989512;28;45474;-70
2021/09/13 10:55:08;;;;;;;;;3.00;3.00;;;;;33.27;33.78;101291.56;4984374;28;45413;-70
2021/09/13 10:58:09;;;;;;;;;2.75;2.75;;;;;33.17;33.95;101289.19;4978918;28;45628;-69
2021/09/13 11:00:37;;;;;;;;;5.75;4.00;;;;;33.08;34.54;101287.69;4981187;28;46960;-69
2021/09/13 11:03:23;;;;;;;;;4.75;4.75;;;;;33.02;34.89;101287.66;4990508;28;45400;-69
2021/09/13 11:06:07;;;;;;;;;6.00;4.75;;;;;32.87;35.18;101291.28;4994330;28;45395;-69
2021/09/13 11:08:44;;;;;;;;;3.50;3.00;;;;;32.60;34.72;101289.41;4981263;28;45475;-69
2021/09/13 11:11:14;;;;;;;;;4.00;3.00;;;;;32.31;35.30;101280.34;4987675;28;46488;-70
2021/09/13 11:13:43;;;;;;;;;4.00;4.00;;;;;32.13;35.54;101275.38;4989313;28;45495;-70
2021/09/13 11:16:09;;;;;;;;;4.75;4.75;;;;;32.03;35.73;101279.44;4989815;28;45495;-69
2021/09/13 11:18:37;;;;;;;;;4.75;4.75;;;;;31.97;36.44;101272.06;4992141;28;45566;-69
2021/09/13 11:21:19;;;;;;;;;4.00;4.00;;;;;31.87;36.05;101277.81;4989497;28;45662;-69
2021/09/13 11:23:51;;;;;;;;;6.25;5.00;;;;;31.74;36.82;101273.06;4989811;28;45366;-69